sensor_id;sensor_type;location;lat;lon;timestamp;P1;durP1;ratioP1;P2;durP2;ratioP2
59922;SDS011;45778;51.142;3.732;2022-12-19T00:01:14;33.55;;;15.68;;
59922;SDS011;45778;51.142;3.732;2022-12-19T00:03:41;31.95;;;16.90;;
59922;SDS011;45778;51.142;3.732;2022-12-19T00:06:08;40.88;;;19.13;;
59922;SDS011;45778;51.142;3.732;2022-12-19T00:08:34;41.35;;;18.50;;
59922;SDS011;45778;51.142;3.732;2022-12-19T00:11:00;36.58;;;17.80;;
59922;SDS011;45778;51.142;3.732;2022-12-19T00:13:28;32.25;;;17.48;;
59922;SDS011;45778;51.142;3.732;2022-12-19T00:15:59;34.25;;;17.38;;
59922;SDS011;45778;51.142;3.732;2022-12-19T00:18:26;36.60;;;18.60;;
59922;SDS011;45778;51.142;3.732;2022-12-19T00:20:56;32.05;;;16.98;;
59922;SDS011;45778;51.142;3.732;2022-12-19T00:23:30;36.00;;;18.65;;
59922;SDS011;45778;51.142;3.732;2022-12-19T00:26:14;34.90;;;17.42;;
59922;SDS011;45778;51.142;3.732;2022-12-19T00:28:40;35.40;;;16.60;;
59922;SDS011;45778;51.142;3.732;2022-12-19T00:31:07;29.88;;;16.58;;
59922;SDS011;45778;51.142;3.732;2022-12-19T00:33:33;28.38;;;15.02;;
59922;SDS011;45778;51.142;3.732;2022-12-19T00:36:00;35.20;;;16.88;;
59922;SDS011;45778;51.142;3.732;2022-12-19T00:38:28;39.15;;;15.55;;
59922;SDS011;45778;51.142;3.732;2022-12-19T00:40:54;28.65;;;16.45;;
59922;SDS011;45778;51.142;3.732;2022-12-19T00:43:20;30.85;;;15.07;;
59922;SDS011;45778;51.142;3.732;2022-12-19T00:45:45;31.02;;;15.68;;
59922;SDS011;45778;51.142;3.732;2022-12-19T00:48:11;30.50;;;16.50;;
59922;SDS011;45778;51.142;3.732;2022-12-19T00:50:37;31.02;;;16.27;;
59922;SDS011;45778;51.142;3.732;2022-12-19T00:53:02;29.05;;;15.70;;
59922;SDS011;45778;51.142;3.732;2022-12-19T00:55:28;22.40;;;13.25;;
59922;SDS011;45778;51.142;3.732;2022-12-19T00:57:54;28.42;;;14.52;;
59922;SDS011;45778;51.142;3.732;2022-12-19T01:00:20;28.90;;;14.07;;
59922;SDS011;45778;51.142;3.732;2022-12-19T01:02:46;21.23;;;13.52;;
59922;SDS011;45778;51.142;3.732;2022-12-19T01:05:11;24.50;;;12.55;;
59922;SDS011;45778;51.142;3.732;2022-12-19T01:07:37;23.75;;;13.38;;
59922;SDS011;45778;51.142;3.732;2022-12-19T01:10:03;21.85;;;12.75;;
59922;SDS011;45778;51.142;3.732;2022-12-19T01:12:29;17.10;;;9.30;;
59922;SDS011;45778;51.142;3.732;2022-12-19T01:15:09;19.13;;;10.98;;
59922;SDS011;45778;51.142;3.732;2022-12-19T01:17:36;15.80;;;9.80;;
59922;SDS011;45778;51.142;3.732;2022-12-19T01:20:01;16.63;;;9.82;;
59922;SDS011;45778;51.142;3.732;2022-12-19T01:22:28;16.50;;;9.40;;
59922;SDS011;45778;51.142;3.732;2022-12-19T01:24:53;15.95;;;9.07;;
59922;SDS011;45778;51.142;3.732;2022-12-19T01:27:19;17.70;;;10.93;;
59922;SDS011;45778;51.142;3.732;2022-12-19T01:29:45;18.88;;;10.73;;
59922;SDS011;45778;51.142;3.732;2022-12-19T01:32:11;22.60;;;11.48;;
59922;SDS011;45778;51.142;3.732;2022-12-19T01:34:36;20.33;;;10.70;;
59922;SDS011;45778;51.142;3.732;2022-12-19T01:37:02;17.65;;;11.45;;
59922;SDS011;45778;51.142;3.732;2022-12-19T01:39:28;15.23;;;9.40;;
59922;SDS011;45778;51.142;3.732;2022-12-19T01:41:53;18.30;;;11.13;;
59922;SDS011;45778;51.142;3.732;2022-12-19T01:44:19;15.73;;;10.20;;
59922;SDS011;45778;51.142;3.732;2022-12-19T01:46:48;18.52;;;8.38;;
59922;SDS011;45778;51.142;3.732;2022-12-19T01:49:32;19.40;;;11.60;;
59922;SDS011;45778;51.142;3.732;2022-12-19T01:52:00;18.23;;;10.60;;
59922;SDS011;45778;51.142;3.732;2022-12-19T01:54:36;19.27;;;11.10;;
59922;SDS011;45778;51.142;3.732;2022-12-19T01:57:05;18.50;;;11.27;;
59922;SDS011;45778;51.142;3.732;2022-12-19T02:02:16;16.98;;;11.10;;
59922;SDS011;45778;51.142;3.732;2022-12-19T02:04:47;17.92;;;11.80;;
59922;SDS011;45778;51.142;3.732;2022-12-19T02:07:13;20.73;;;10.60;;
59922;SDS011;45778;51.142;3.732;2022-12-19T02:09:45;19.98;;;11.88;;
59922;SDS011;45778;51.142;3.732;2022-12-19T02:12:13;19.63;;;10.75;;
59922;SDS011;45778;51.142;3.732;2022-12-19T02:14:39;18.95;;;11.55;;
59922;SDS011;45778;51.142;3.732;2022-12-19T02:17:17;18.35;;;11.00;;
59922;SDS011;45778;51.142;3.732;2022-12-19T02:25:55;16.63;;;11.50;;
59922;SDS011;45778;51.142;3.732;2022-12-19T02:28:40;17.15;;;10.13;;
59922;SDS011;45778;51.142;3.732;2022-12-19T02:31:26;19.20;;;10.13;;
59922;SDS011;45778;51.142;3.732;2022-12-19T02:33:58;19.00;;;11.50;;
59922;SDS011;45778;51.142;3.732;2022-12-19T02:37:22;23.98;;;14.02;;
59922;SDS011;45778;51.142;3.732;2022-12-19T02:39:51;19.30;;;11.48;;
59922;SDS011;45778;51.142;3.732;2022-12-19T02:42:31;19.55;;;11.88;;
59922;SDS011;45778;51.142;3.732;2022-12-19T02:44:59;20.67;;;11.82;;
59922;SDS011;45778;51.142;3.732;2022-12-19T02:47:27;20.08;;;12.60;;
59922;SDS011;45778;51.142;3.732;2022-12-19T02:49:55;19.17;;;11.38;;
59922;SDS011;45778;51.142;3.732;2022-12-19T02:54:47;18.27;;;10.38;;
59922;SDS011;45778;51.142;3.732;2022-12-19T02:57:19;19.13;;;12.07;;
59922;SDS011;45778;51.142;3.732;2022-12-19T02:59:58;18.30;;;12.57;;
59922;SDS011;45778;51.142;3.732;2022-12-19T03:02:35;21.00;;;11.73;;
59922;SDS011;45778;51.142;3.732;2022-12-19T03:08:00;20.67;;;11.45;;
59922;SDS011;45778;51.142;3.732;2022-12-19T03:10:40;14.13;;;9.27;;
59922;SDS011;45778;51.142;3.732;2022-12-19T03:13:18;16.27;;;11.02;;
59922;SDS011;45778;51.142;3.732;2022-12-19T03:15:49;15.55;;;11.05;;
59922;SDS011;45778;51.142;3.732;2022-12-19T03:18:15;10.82;;;7.30;;
59922;SDS011;45778;51.142;3.732;2022-12-19T03:20:51;15.15;;;8.93;;
59922;SDS011;45778;51.142;3.732;2022-12-19T03:23:26;14.07;;;9.07;;
59922;SDS011;45778;51.142;3.732;2022-12-19T03:25:53;13.65;;;9.77;;
59922;SDS011;45778;51.142;3.732;2022-12-19T03:28:25;6.53;;;3.78;;
59922;SDS011;45778;51.142;3.732;2022-12-19T03:31:11;0.10;;;0.10;;
59922;SDS011;45778;51.142;3.732;2022-12-19T03:33:40;0.50;;;0.50;;
59922;SDS011;45778;51.142;3.732;2022-12-19T03:36:09;0.00;;;0.00;;
59922;SDS011;45778;51.142;3.732;2022-12-19T03:38:45;0.03;;;0.03;;
59922;SDS011;45778;51.142;3.732;2022-12-19T03:41:13;0.30;;;0.30;;
59922;SDS011;45778;51.142;3.732;2022-12-19T03:43:41;0.40;;;0.40;;
59922;SDS011;45778;51.142;3.732;2022-12-19T03:46:14;1.45;;;1.13;;
59922;SDS011;45778;51.142;3.732;2022-12-19T03:48:50;0.00;;;0.00;;
59922;SDS011;45778;51.142;3.732;2022-12-19T03:54:08;0.00;;;0.00;;
59922;SDS011;45778;51.142;3.732;2022-12-19T04:02:20;0.45;;;0.45;;
59922;SDS011;45778;51.142;3.732;2022-12-19T04:04:50;0.10;;;0.10;;
59922;SDS011;45778;51.142;3.732;2022-12-19T04:07:19;0.00;;;0.00;;
59922;SDS011;45778;51.142;3.732;2022-12-19T04:09:46;0.10;;;0.10;;
59922;SDS011;45778;51.142;3.732;2022-12-19T04:12:19;0.15;;;0.15;;
59922;SDS011;45778;51.142;3.732;2022-12-19T04:14:47;1.53;;;0.40;;
59922;SDS011;45778;51.142;3.732;2022-12-19T04:22:31;0.90;;;0.90;;
59922;SDS011;45778;51.142;3.732;2022-12-19T04:25:01;0.47;;;0.47;;
59922;SDS011;45778;51.142;3.732;2022-12-19T04:27:31;0.40;;;0.40;;
59922;SDS011;45778;51.142;3.732;2022-12-19T04:29:59;0.17;;;0.17;;
59922;SDS011;45778;51.142;3.732;2022-12-19T04:32:27;0.00;;;0.00;;
59922;SDS011;45778;51.142;3.732;2022-12-19T04:34:54;0.00;;;0.00;;
59922;SDS011;45778;51.142;3.732;2022-12-19T04:37:19;0.00;;;0.00;;
59922;SDS011;45778;51.142;3.732;2022-12-19T04:39:45;0.00;;;0.00;;
59922;SDS011;45778;51.142;3.732;2022-12-19T04:42:11;0.25;;;0.25;;
59922;SDS011;45778;51.142;3.732;2022-12-19T04:44:36;0.10;;;0.10;;
59922;SDS011;45778;51.142;3.732;2022-12-19T04:47:02;0.00;;;0.00;;
59922;SDS011;45778;51.142;3.732;2022-12-19T04:49:28;0.35;;;0.35;;
59922;SDS011;45778;51.142;3.732;2022-12-19T04:51:54;0.68;;;0.68;;
59922;SDS011;45778;51.142;3.732;2022-12-19T04:54:20;0.32;;;0.32;;
59922;SDS011;45778;51.142;3.732;2022-12-19T04:56:45;0.08;;;0.08;;
59922;SDS011;45778;51.142;3.732;2022-12-19T04:59:11;0.00;;;0.00;;
59922;SDS011;45778;51.142;3.732;2022-12-19T05:01:37;0.08;;;0.08;;
59922;SDS011;45778;51.142;3.732;2022-12-19T05:04:03;0.98;;;0.35;;
59922;SDS011;45778;51.142;3.732;2022-12-19T05:06:28;0.03;;;0.03;;
59922;SDS011;45778;51.142;3.732;2022-12-19T05:08:54;0.00;;;0.00;;
59922;SDS011;45778;51.142;3.732;2022-12-19T05:11:20;0.00;;;0.00;;
59922;SDS011;45778;51.142;3.732;2022-12-19T05:13:46;0.00;;;0.00;;
59922;SDS011;45778;51.142;3.732;2022-12-19T05:16:12;0.13;;;0.10;;
59922;SDS011;45778;51.142;3.732;2022-12-19T05:18:38;2.22;;;0.88;;
59922;SDS011;45778;51.142;3.732;2022-12-19T05:21:05;0.20;;;0.13;;
59922;SDS011;45778;51.142;3.732;2022-12-19T05:23:31;1.95;;;1.27;;
59922;SDS011;45778;51.142;3.732;2022-12-19T05:25:57;1.30;;;1.20;;
59922;SDS011;45778;51.142;3.732;2022-12-19T05:28:24;0.00;;;0.00;;
59922;SDS011;45778;51.142;3.732;2022-12-19T05:30:50;0.50;;;0.50;;
59922;SDS011;45778;51.142;3.732;2022-12-19T05:33:16;0.65;;;0.65;;
59922;SDS011;45778;51.142;3.732;2022-12-19T05:35:42;0.00;;;0.00;;
59922;SDS011;45778;51.142;3.732;2022-12-19T05:38:07;0.00;;;0.00;;
59922;SDS011;45778;51.142;3.732;2022-12-19T05:40:33;0.22;;;0.22;;
59922;SDS011;45778;51.142;3.732;2022-12-19T05:42:59;0.00;;;0.00;;
59922;SDS011;45778;51.142;3.732;2022-12-19T05:45:25;0.47;;;0.47;;
59922;SDS011;45778;51.142;3.732;2022-12-19T05:47:50;0.45;;;0.45;;
59922;SDS011;45778;51.142;3.732;2022-12-19T05:50:16;0.00;;;0.00;;
59922;SDS011;45778;51.142;3.732;2022-12-19T05:52:42;0.00;;;0.00;;
59922;SDS011;45778;51.142;3.732;2022-12-19T05:55:08;2.28;;;0.75;;
59922;SDS011;45778;51.142;3.732;2022-12-19T05:57:35;0.03;;;0.03;;
59922;SDS011;45778;51.142;3.732;2022-12-19T06:00:01;1.25;;;1.23;;
59922;SDS011;45778;51.142;3.732;2022-12-19T06:02:31;0.10;;;0.10;;
59922;SDS011;45778;51.142;3.732;2022-12-19T06:04:57;0.00;;;0.00;;
59922;SDS011;45778;51.142;3.732;2022-12-19T06:07:23;0.80;;;0.75;;
59922;SDS011;45778;51.142;3.732;2022-12-19T06:09:49;1.77;;;1.02;;
59922;SDS011;45778;51.142;3.732;2022-12-19T06:12:15;0.00;;;0.00;;
59922;SDS011;45778;51.142;3.732;2022-12-19T06:14:40;0.00;;;0.00;;
59922;SDS011;45778;51.142;3.732;2022-12-19T06:17:06;0.35;;;0.35;;
59922;SDS011;45778;51.142;3.732;2022-12-19T06:19:32;0.15;;;0.15;;
59922;SDS011;45778;51.142;3.732;2022-12-19T06:21:57;0.00;;;0.00;;
59922;SDS011;45778;51.142;3.732;2022-12-19T06:24:23;0.00;;;0.00;;
59922;SDS011;45778;51.142;3.732;2022-12-19T06:26:50;0.00;;;0.00;;
59922;SDS011;45778;51.142;3.732;2022-12-19T06:29:15;0.55;;;0.55;;
59922;SDS011;45778;51.142;3.732;2022-12-19T06:31:41;0.10;;;0.10;;
59922;SDS011;45778;51.142;3.732;2022-12-19T06:34:08;0.40;;;0.40;;
59922;SDS011;45778;51.142;3.732;2022-12-19T06:36:34;0.00;;;0.00;;
59922;SDS011;45778;51.142;3.732;2022-12-19T06:39:00;0.40;;;0.32;;
59922;SDS011;45778;51.142;3.732;2022-12-19T06:41:27;5.80;;;0.65;;
59922;SDS011;45778;51.142;3.732;2022-12-19T06:44:12;0.00;;;0.00;;
59922;SDS011;45778;51.142;3.732;2022-12-19T06:46:39;0.00;;;0.00;;
59922;SDS011;45778;51.142;3.732;2022-12-19T06:49:05;0.00;;;0.00;;
59922;SDS011;45778;51.142;3.732;2022-12-19T06:51:31;0.85;;;0.85;;
59922;SDS011;45778;51.142;3.732;2022-12-19T06:53:57;0.50;;;0.47;;
59922;SDS011;45778;51.142;3.732;2022-12-19T06:56:23;8.85;;;6.60;;
59922;SDS011;45778;51.142;3.732;2022-12-19T06:58:49;9.80;;;5.55;;
59922;SDS011;45778;51.142;3.732;2022-12-19T07:01:17;8.70;;;6.35;;
59922;SDS011;45778;51.142;3.732;2022-12-19T07:03:44;7.55;;;5.63;;
59922;SDS011;45778;51.142;3.732;2022-12-19T07:06:11;8.00;;;4.25;;
59922;SDS011;45778;51.142;3.732;2022-12-19T07:08:36;4.95;;;4.25;;
59922;SDS011;45778;51.142;3.732;2022-12-19T07:11:02;8.80;;;5.15;;
59922;SDS011;45778;51.142;3.732;2022-12-19T07:13:28;6.60;;;4.68;;
59922;SDS011;45778;51.142;3.732;2022-12-19T07:15:55;9.20;;;5.00;;
59922;SDS011;45778;51.142;3.732;2022-12-19T07:18:24;6.28;;;4.68;;
59922;SDS011;45778;51.142;3.732;2022-12-19T07:20:51;9.43;;;5.10;;
59922;SDS011;45778;51.142;3.732;2022-12-19T07:23:17;6.68;;;4.50;;
59922;SDS011;45778;51.142;3.732;2022-12-19T07:25:44;7.03;;;4.47;;
59922;SDS011;45778;51.142;3.732;2022-12-19T07:28:10;6.65;;;4.72;;
59922;SDS011;45778;51.142;3.732;2022-12-19T07:30:37;6.97;;;4.78;;
59922;SDS011;45778;51.142;3.732;2022-12-19T07:33:02;6.32;;;5.03;;
59922;SDS011;45778;51.142;3.732;2022-12-19T07:35:28;6.68;;;4.50;;
59922;SDS011;45778;51.142;3.732;2022-12-19T07:37:55;9.75;;;5.45;;
59922;SDS011;45778;51.142;3.732;2022-12-19T07:40:30;8.68;;;5.20;;
59922;SDS011;45778;51.142;3.732;2022-12-19T07:43:00;6.65;;;4.82;;
59922;SDS011;45778;51.142;3.732;2022-12-19T07:45:30;6.97;;;4.45;;
59922;SDS011;45778;51.142;3.732;2022-12-19T07:48:00;8.07;;;4.70;;
59922;SDS011;45778;51.142;3.732;2022-12-19T07:50:26;9.07;;;5.15;;
59922;SDS011;45778;51.142;3.732;2022-12-19T07:52:53;9.55;;;5.20;;
59922;SDS011;45778;51.142;3.732;2022-12-19T07:55:18;12.40;;;4.40;;
59922;SDS011;45778;51.142;3.732;2022-12-19T07:57:44;9.18;;;4.82;;
59922;SDS011;45778;51.142;3.732;2022-12-19T08:00:10;7.43;;;4.30;;
59922;SDS011;45778;51.142;3.732;2022-12-19T08:02:36;11.27;;;5.45;;
59922;SDS011;45778;51.142;3.732;2022-12-19T08:05:02;7.32;;;4.97;;
59922;SDS011;45778;51.142;3.732;2022-12-19T08:07:28;8.23;;;4.88;;
59922;SDS011;45778;51.142;3.732;2022-12-19T08:09:53;7.97;;;4.50;;
59922;SDS011;45778;51.142;3.732;2022-12-19T08:12:21;6.40;;;4.72;;
59922;SDS011;45778;51.142;3.732;2022-12-19T08:14:47;9.63;;;4.72;;
59922;SDS011;45778;51.142;3.732;2022-12-19T08:17:13;7.28;;;4.35;;
59922;SDS011;45778;51.142;3.732;2022-12-19T08:19:39;7.43;;;4.63;;
59922;SDS011;45778;51.142;3.732;2022-12-19T08:22:05;7.15;;;4.35;;
59922;SDS011;45778;51.142;3.732;2022-12-19T08:24:31;6.90;;;4.57;;
59922;SDS011;45778;51.142;3.732;2022-12-19T08:26:57;5.80;;;4.05;;
59922;SDS011;45778;51.142;3.732;2022-12-19T08:29:22;10.00;;;4.03;;
59922;SDS011;45778;51.142;3.732;2022-12-19T08:31:48;5.20;;;3.58;;
59922;SDS011;45778;51.142;3.732;2022-12-19T08:34:14;5.40;;;3.95;;
59922;SDS011;45778;51.142;3.732;2022-12-19T08:36:40;5.40;;;3.90;;
59922;SDS011;45778;51.142;3.732;2022-12-19T08:39:05;7.22;;;3.13;;
59922;SDS011;45778;51.142;3.732;2022-12-19T08:41:31;4.95;;;3.95;;
59922;SDS011;45778;51.142;3.732;2022-12-19T08:43:57;5.55;;;3.55;;
59922;SDS011;45778;51.142;3.732;2022-12-19T08:46:23;16.17;;;9.35;;
59922;SDS011;45778;51.142;3.732;2022-12-19T08:48:49;10.85;;;6.72;;
59922;SDS011;45778;51.142;3.732;2022-12-19T08:51:14;7.53;;;6.13;;
59922;SDS011;45778;51.142;3.732;2022-12-19T08:53:42;8.80;;;4.90;;
59922;SDS011;45778;51.142;3.732;2022-12-19T08:58:38;7.97;;;5.45;;
59922;SDS011;45778;51.142;3.732;2022-12-19T09:01:05;5.95;;;5.13;;
59922;SDS011;45778;51.142;3.732;2022-12-19T09:03:33;19.20;;;12.75;;
59922;SDS011;45778;51.142;3.732;2022-12-19T09:06:00;18.05;;;13.52;;
59922;SDS011;45778;51.142;3.732;2022-12-19T09:08:28;13.45;;;12.10;;
59922;SDS011;45778;51.142;3.732;2022-12-19T09:11:02;7.05;;;4.13;;
59922;SDS011;45778;51.142;3.732;2022-12-19T09:13:29;5.57;;;3.47;;
59922;SDS011;45778;51.142;3.732;2022-12-19T09:16:03;6.32;;;3.05;;
59922;SDS011;45778;51.142;3.732;2022-12-19T09:18:30;4.28;;;2.70;;
59922;SDS011;45778;51.142;3.732;2022-12-19T09:20:56;7.07;;;3.28;;
59922;SDS011;45778;51.142;3.732;2022-12-19T09:23:24;6.80;;;3.55;;
59922;SDS011;45778;51.142;3.732;2022-12-19T09:25:54;5.65;;;3.80;;
59922;SDS011;45778;51.142;3.732;2022-12-19T09:28:21;19.27;;;9.80;;
59922;SDS011;45778;51.142;3.732;2022-12-19T09:30:58;6.65;;;4.65;;
59922;SDS011;45778;51.142;3.732;2022-12-19T09:33:30;6.00;;;2.75;;
59922;SDS011;45778;51.142;3.732;2022-12-19T09:35:57;7.15;;;3.80;;
59922;SDS011;45778;51.142;3.732;2022-12-19T09:38:24;5.75;;;3.58;;
59922;SDS011;45778;51.142;3.732;2022-12-19T09:40:54;6.60;;;3.92;;
59922;SDS011;45778;51.142;3.732;2022-12-19T09:43:31;3.22;;;2.67;;
59922;SDS011;45778;51.142;3.732;2022-12-19T09:49:17;12.43;;;7.20;;
59922;SDS011;45778;51.142;3.732;2022-12-19T09:54:52;18.92;;;9.80;;
59922;SDS011;45778;51.142;3.732;2022-12-19T09:59:54;21.58;;;10.40;;
59922;SDS011;45778;51.142;3.732;2022-12-19T10:02:36;35.05;;;11.93;;
59922;SDS011;45778;51.142;3.732;2022-12-19T10:08:07;5.30;;;3.20;;
59922;SDS011;45778;51.142;3.732;2022-12-19T10:21:58;9.57;;;4.20;;
59922;SDS011;45778;51.142;3.732;2022-12-19T10:24:47;4.60;;;3.47;;
59922;SDS011;45778;51.142;3.732;2022-12-19T10:30:50;6.40;;;3.95;;
59922;SDS011;45778;51.142;3.732;2022-12-19T10:33:25;4.65;;;2.55;;
59922;SDS011;45778;51.142;3.732;2022-12-19T10:35:57;5.95;;;4.10;;
59922;SDS011;45778;51.142;3.732;2022-12-19T10:41:14;5.75;;;3.08;;
59922;SDS011;45778;51.142;3.732;2022-12-19T10:46:22;5.20;;;3.20;;
59922;SDS011;45778;51.142;3.732;2022-12-19T10:48:58;7.32;;;3.80;;
59922;SDS011;45778;51.142;3.732;2022-12-19T10:51:26;7.55;;;3.35;;
59922;SDS011;45778;51.142;3.732;2022-12-19T10:53:54;6.50;;;4.07;;
59922;SDS011;45778;51.142;3.732;2022-12-19T10:56:25;7.28;;;4.00;;
59922;SDS011;45778;51.142;3.732;2022-12-19T10:58:53;11.02;;;4.57;;
59922;SDS011;45778;51.142;3.732;2022-12-19T11:01:33;13.00;;;5.25;;
59922;SDS011;45778;51.142;3.732;2022-12-19T11:09:28;17.90;;;8.02;;
59922;SDS011;45778;51.142;3.732;2022-12-19T11:14:42;19.25;;;8.90;;
59922;SDS011;45778;51.142;3.732;2022-12-19T11:19:57;9.13;;;5.40;;
59922;SDS011;45778;51.142;3.732;2022-12-19T11:22:29;8.30;;;5.53;;
59922;SDS011;45778;51.142;3.732;2022-12-19T11:27:33;6.22;;;3.40;;
59922;SDS011;45778;51.142;3.732;2022-12-19T11:32:43;5.78;;;3.00;;
59922;SDS011;45778;51.142;3.732;2022-12-19T11:37:53;16.95;;;8.60;;
59922;SDS011;45778;51.142;3.732;2022-12-19T11:42:53;5.80;;;3.45;;
59922;SDS011;45778;51.142;3.732;2022-12-19T11:45:59;4.20;;;3.40;;
59922;SDS011;45778;51.142;3.732;2022-12-19T11:56:26;9.98;;;6.05;;
59922;SDS011;45778;51.142;3.732;2022-12-19T11:58:54;8.77;;;6.50;;
59922;SDS011;45778;51.142;3.732;2022-12-19T12:07:05;6.25;;;3.53;;
59922;SDS011;45778;51.142;3.732;2022-12-19T12:09:42;9.15;;;3.60;;
59922;SDS011;45778;51.142;3.732;2022-12-19T12:18:00;4.60;;;2.72;;
59922;SDS011;45778;51.142;3.732;2022-12-19T12:26:04;4.38;;;2.60;;
59922;SDS011;45778;51.142;3.732;2022-12-19T12:31:15;6.25;;;3.08;;
59922;SDS011;45778;51.142;3.732;2022-12-19T12:33:54;4.20;;;2.97;;
59922;SDS011;45778;51.142;3.732;2022-12-19T12:44:57;7.38;;;3.13;;
59922;SDS011;45778;51.142;3.732;2022-12-19T12:49:58;6.25;;;3.72;;
59922;SDS011;45778;51.142;3.732;2022-12-19T12:52:32;3.78;;;2.65;;
59922;SDS011;45778;51.142;3.732;2022-12-19T12:55:01;6.60;;;2.60;;
59922;SDS011;45778;51.142;3.732;2022-12-19T12:57:38;4.97;;;2.45;;
59922;SDS011;45778;51.142;3.732;2022-12-19T13:07:53;4.65;;;2.80;;
59922;SDS011;45778;51.142;3.732;2022-12-19T13:10:21;4.30;;;3.03;;
59922;SDS011;45778;51.142;3.732;2022-12-19T13:12:54;5.75;;;2.83;;
59922;SDS011;45778;51.142;3.732;2022-12-19T13:18:00;5.97;;;2.30;;
59922;SDS011;45778;51.142;3.732;2022-12-19T13:20:38;4.40;;;2.75;;
59922;SDS011;45778;51.142;3.732;2022-12-19T13:26:17;3.78;;;2.05;;
59922;SDS011;45778;51.142;3.732;2022-12-19T13:28:46;4.65;;;2.47;;
59922;SDS011;45778;51.142;3.732;2022-12-19T13:31:12;4.65;;;1.95;;
59922;SDS011;45778;51.142;3.732;2022-12-19T13:39:59;6.50;;;2.10;;
59922;SDS011;45778;51.142;3.732;2022-12-19T13:44:52;4.85;;;2.78;;
59922;SDS011;45778;51.142;3.732;2022-12-19T13:47:21;4.05;;;2.22;;
59922;SDS011;45778;51.142;3.732;2022-12-19T13:49:48;5.57;;;3.38;;
59922;SDS011;45778;51.142;3.732;2022-12-19T13:52:16;5.70;;;2.15;;
59922;SDS011;45778;51.142;3.732;2022-12-19T13:54:46;4.38;;;2.33;;
59922;SDS011;45778;51.142;3.732;2022-12-19T13:57:29;3.65;;;2.70;;
59922;SDS011;45778;51.142;3.732;2022-12-19T14:00:00;8.15;;;2.58;;
59922;SDS011;45778;51.142;3.732;2022-12-19T14:02:32;4.07;;;2.15;;
59922;SDS011;45778;51.142;3.732;2022-12-19T14:05:01;4.03;;;2.63;;
59922;SDS011;45778;51.142;3.732;2022-12-19T14:07:38;3.30;;;2.42;;
59922;SDS011;45778;51.142;3.732;2022-12-19T14:10:20;5.03;;;2.30;;
59922;SDS011;45778;51.142;3.732;2022-12-19T14:12:53;5.85;;;2.17;;
59922;SDS011;45778;51.142;3.732;2022-12-19T14:15:43;4.18;;;2.33;;
59922;SDS011;45778;51.142;3.732;2022-12-19T14:18:25;3.85;;;2.08;;
59922;SDS011;45778;51.142;3.732;2022-12-19T14:23:39;6.38;;;2.58;;
59922;SDS011;45778;51.142;3.732;2022-12-19T14:26:07;3.13;;;1.83;;
59922;SDS011;45778;51.142;3.732;2022-12-19T14:28:47;4.78;;;2.80;;
59922;SDS011;45778;51.142;3.732;2022-12-19T14:33:44;4.03;;;2.05;;
59922;SDS011;45778;51.142;3.732;2022-12-19T14:36:12;4.45;;;2.40;;
59922;SDS011;45778;51.142;3.732;2022-12-19T14:38:38;3.95;;;1.83;;
59922;SDS011;45778;51.142;3.732;2022-12-19T14:41:16;4.80;;;2.40;;
59922;SDS011;45778;51.142;3.732;2022-12-19T14:47:10;6.38;;;2.60;;
59922;SDS011;45778;51.142;3.732;2022-12-19T14:49:47;3.88;;;2.00;;
59922;SDS011;45778;51.142;3.732;2022-12-19T14:52:38;4.25;;;2.50;;
59922;SDS011;45778;51.142;3.732;2022-12-19T14:57:44;14.32;;;7.45;;
59922;SDS011;45778;51.142;3.732;2022-12-19T15:02:49;15.82;;;8.95;;
59922;SDS011;45778;51.142;3.732;2022-12-19T15:05:15;6.93;;;3.92;;
59922;SDS011;45778;51.142;3.732;2022-12-19T15:07:43;4.05;;;2.55;;
59922;SDS011;45778;51.142;3.732;2022-12-19T15:10:21;4.78;;;3.17;;
59922;SDS011;45778;51.142;3.732;2022-12-19T15:18:24;6.60;;;2.88;;
59922;SDS011;45778;51.142;3.732;2022-12-19T15:20:57;5.60;;;2.35;;
59922;SDS011;45778;51.142;3.732;2022-12-19T15:23:24;6.85;;;2.70;;
59922;SDS011;45778;51.142;3.732;2022-12-19T15:25:51;5.90;;;2.58;;
59922;SDS011;45778;51.142;3.732;2022-12-19T15:28:18;4.90;;;3.42;;
59922;SDS011;45778;51.142;3.732;2022-12-19T15:30:54;7.55;;;3.33;;
59922;SDS011;45778;51.142;3.732;2022-12-19T15:33:24;5.10;;;3.00;;
59922;SDS011;45778;51.142;3.732;2022-12-19T15:35:50;5.70;;;3.13;;
59922;SDS011;45778;51.142;3.732;2022-12-19T15:38:15;6.25;;;3.45;;
59922;SDS011;45778;51.142;3.732;2022-12-19T15:40:41;4.93;;;2.90;;
59922;SDS011;45778;51.142;3.732;2022-12-19T15:43:17;8.43;;;2.95;;
59922;SDS011;45778;51.142;3.732;2022-12-19T15:45:48;5.97;;;2.65;;
59922;SDS011;45778;51.142;3.732;2022-12-19T15:48:19;6.95;;;3.55;;
59922;SDS011;45778;51.142;3.732;2022-12-19T15:50:45;5.72;;;2.90;;
59922;SDS011;45778;51.142;3.732;2022-12-19T15:53:26;4.68;;;2.85;;
59922;SDS011;45778;51.142;3.732;2022-12-19T15:55:53;5.35;;;3.35;;
59922;SDS011;45778;51.142;3.732;2022-12-19T15:58:21;6.25;;;3.40;;
59922;SDS011;45778;51.142;3.732;2022-12-19T16:00:51;5.88;;;3.67;;
59922;SDS011;45778;51.142;3.732;2022-12-19T16:03:19;5.63;;;4.35;;
59922;SDS011;45778;51.142;3.732;2022-12-19T16:05:46;6.82;;;3.60;;
59922;SDS011;45778;51.142;3.732;2022-12-19T16:08:13;8.82;;;4.70;;
59922;SDS011;45778;51.142;3.732;2022-12-19T16:10:44;5.63;;;4.45;;
59922;SDS011;45778;51.142;3.732;2022-12-19T16:13:31;8.07;;;5.57;;
59922;SDS011;45778;51.142;3.732;2022-12-19T16:15:59;4.97;;;3.28;;
59922;SDS011;45778;51.142;3.732;2022-12-19T16:18:26;7.32;;;3.65;;
59922;SDS011;45778;51.142;3.732;2022-12-19T16:20:52;5.65;;;3.47;;
59922;SDS011;45778;51.142;3.732;2022-12-19T16:23:18;7.38;;;3.15;;
59922;SDS011;45778;51.142;3.732;2022-12-19T16:25:47;5.68;;;3.00;;
59922;SDS011;45778;51.142;3.732;2022-12-19T16:28:19;5.60;;;3.13;;
59922;SDS011;45778;51.142;3.732;2022-12-19T16:30:49;8.43;;;2.83;;
59922;SDS011;45778;51.142;3.732;2022-12-19T16:33:19;7.60;;;3.35;;
59922;SDS011;45778;51.142;3.732;2022-12-19T16:35:47;5.88;;;3.22;;
59922;SDS011;45778;51.142;3.732;2022-12-19T16:38:13;3.92;;;3.10;;
59922;SDS011;45778;51.142;3.732;2022-12-19T16:40:40;4.97;;;3.25;;
59922;SDS011;45778;51.142;3.732;2022-12-19T16:43:11;6.97;;;2.83;;
59922;SDS011;45778;51.142;3.732;2022-12-19T16:45:50;5.35;;;3.20;;
59922;SDS011;45778;51.142;3.732;2022-12-19T16:48:20;5.78;;;3.40;;
59922;SDS011;45778;51.142;3.732;2022-12-19T16:50:48;6.13;;;3.08;;
59922;SDS011;45778;51.142;3.732;2022-12-19T16:53:15;7.53;;;3.97;;
59922;SDS011;45778;51.142;3.732;2022-12-19T16:55:41;7.80;;;3.53;;
59922;SDS011;45778;51.142;3.732;2022-12-19T16:58:15;5.53;;;2.92;;
59922;SDS011;45778;51.142;3.732;2022-12-19T17:00:46;8.30;;;3.40;;
59922;SDS011;45778;51.142;3.732;2022-12-19T17:03:25;4.50;;;3.35;;
59922;SDS011;45778;51.142;3.732;2022-12-19T17:05:52;7.40;;;2.80;;
59922;SDS011;45778;51.142;3.732;2022-12-19T17:08:17;4.38;;;3.17;;
59922;SDS011;45778;51.142;3.732;2022-12-19T17:10:44;4.38;;;2.97;;
59922;SDS011;45778;51.142;3.732;2022-12-19T17:13:12;4.25;;;3.08;;
59922;SDS011;45778;51.142;3.732;2022-12-19T17:15:39;4.88;;;3.92;;
59922;SDS011;45778;51.142;3.732;2022-12-19T17:18:11;10.02;;;3.50;;
59922;SDS011;45778;51.142;3.732;2022-12-19T17:20:44;6.20;;;3.17;;
59922;SDS011;45778;51.142;3.732;2022-12-19T17:23:14;13.73;;;4.88;;
59922;SDS011;45778;51.142;3.732;2022-12-19T17:25:42;5.22;;;3.45;;
59922;SDS011;45778;51.142;3.732;2022-12-19T17:28:08;5.15;;;3.78;;
59922;SDS011;45778;51.142;3.732;2022-12-19T17:30:34;5.22;;;3.25;;
59922;SDS011;45778;51.142;3.732;2022-12-19T17:33:00;5.10;;;2.78;;
59922;SDS011;45778;51.142;3.732;2022-12-19T17:35:27;6.25;;;3.20;;
59922;SDS011;45778;51.142;3.732;2022-12-19T17:37:57;7.50;;;3.50;;